createdAt,value
2019-03-12T00:02:08.466Z,102387.70
2019-03-12T00:04:59.992Z,102388.23
2019-03-12T00:07:51.773Z,102389.66
2019-03-12T00:10:43.296Z,102381.42
2019-03-12T00:13:34.879Z,102375.16
2019-03-12T00:16:26.529Z,102374.67
2019-03-12T00:19:18.185Z,102376.06
2019-03-12T00:22:09.766Z,102366.27
2019-03-12T00:25:01.301Z,102363.03
2019-03-12T00:27:53.515Z,102366.64
2019-03-12T00:30:44.905Z,102352.58
2019-03-12T00:33:36.738Z,102350.56
2019-03-12T00:36:28.399Z,102355.15
2019-03-12T00:39:20.063Z,102341.27
2019-03-12T00:42:12.318Z,102346.25
2019-03-12T00:45:03.816Z,102329.80
2019-03-12T00:47:55.161Z,102333.12
2019-03-12T00:50:46.802Z,102328.73
2019-03-12T00:53:38.243Z,102323.61
2019-03-12T00:56:29.961Z,102326.02
2019-03-12T00:59:21.338Z,102310.29
2019-03-12T01:02:13.519Z,102301.17
2019-03-12T01:05:05.197Z,102300.17
2019-03-12T01:07:56.914Z,102301.95
2019-03-12T01:10:48.267Z,102298.05
2019-03-12T01:13:39.632Z,102283.14
2019-03-12T01:16:30.912Z,102280.77
2019-03-12T01:19:22.401Z,102277.44
2019-03-12T01:22:13.785Z,102283.73
2019-03-12T01:25:06.376Z,102274.04
2019-03-12T01:27:57.936Z,102282.02
2019-03-12T01:30:49.565Z,102279.23
2019-03-12T01:33:40.968Z,102266.39
2019-03-12T01:36:32.593Z,102265.12
2019-03-12T01:39:24.695Z,102261.08
2019-03-12T01:42:16.290Z,102255.50
2019-03-12T01:45:10.259Z,102245.41
2019-03-12T01:48:01.598Z,102247.08
2019-03-12T01:50:53.072Z,102243.91
2019-03-12T01:53:44.482Z,102236.44
2019-03-12T01:56:36.098Z,102229.84
2019-03-12T01:59:27.544Z,102227.44
2019-03-12T02:02:19.113Z,102224.39
2019-03-12T02:05:11.946Z,102216.45
2019-03-12T02:08:03.443Z,102212.66
2019-03-12T02:10:56.073Z,102209.30
2019-03-12T02:13:47.429Z,102205.98
2019-03-12T02:16:39.266Z,102207.25
2019-03-12T02:19:30.809Z,102205.16
2019-03-12T02:22:22.615Z,102200.84
2019-03-12T02:25:15.771Z,102193.97
2019-03-12T02:28:07.232Z,102186.56
2019-03-12T02:30:58.667Z,102186.73
2019-03-12T02:33:49.995Z,102176.64
2019-03-12T02:36:41.512Z,102176.48
2019-03-12T02:39:33.785Z,102169.32
2019-03-12T02:42:25.185Z,102165.05
2019-03-12T02:45:16.726Z,102164.70
2019-03-12T02:48:08.089Z,102157.89
2019-03-12T02:50:59.592Z,102149.11
2019-03-12T02:53:51.079Z,102143.89
2019-03-12T02:56:42.458Z,102137.05
2019-03-12T02:59:33.908Z,102133.97
2019-03-12T03:02:25.926Z,102123.95
2019-03-12T03:05:17.544Z,102118.97
2019-03-12T03:08:10.242Z,102103.18
2019-03-12T03:11:02.481Z,102093.14
2019-03-12T03:13:53.981Z,102077.58
2019-03-12T03:16:45.584Z,102068.63
2019-03-12T03:19:37.688Z,102067.24
2019-03-12T03:22:29.122Z,102052.09
2019-03-12T03:25:20.660Z,102042.49
2019-03-12T03:28:12.028Z,102036.03
2019-03-12T03:31:03.688Z,102031.12
2019-03-12T03:33:56.090Z,102021.34
2019-03-12T03:36:47.445Z,102008.63
2019-03-12T03:39:39.017Z,102008.06
2019-03-12T03:42:32.127Z,101994.32
2019-03-12T03:45:23.995Z,101982.58
2019-03-12T03:48:16.029Z,101987.44
2019-03-12T03:51:07.443Z,101981.48
2019-03-12T03:53:59.421Z,101977.21
2019-03-12T03:56:51.699Z,101972.23
2019-03-12T03:59:43.447Z,101958.59
2019-03-12T04:02:35.456Z,101963.05
2019-03-12T04:05:27.206Z,101955.37
2019-03-12T04:08:18.856Z,101949.48
2019-03-12T04:11:10.531Z,101940.81
2019-03-12T04:14:01.870Z,101931.79
2019-03-12T04:16:53.262Z,101929.94
2019-03-12T04:19:44.677Z,101915.66
2019-03-12T04:22:36.242Z,101907.46
2019-03-12T04:25:27.862Z,101909.55
2019-03-12T04:28:19.278Z,101908.48
2019-03-12T04:31:10.642Z,101910.23
2019-03-12T04:34:25.578Z,101906.70
2019-03-12T04:37:16.991Z,101897.12
2019-03-12T04:40:09.092Z,101887.78
2019-03-12T04:43:00.577Z,101884.70
2019-03-12T04:45:51.864Z,101885.67
2019-03-12T04:48:43.450Z,101871.67
2019-03-12T04:51:34.766Z,101864.31
2019-03-12T04:54:26.125Z,101858.23
2019-03-12T04:57:17.927Z,101850.80
2019-03-12T05:00:13.238Z,101843.13
2019-03-12T05:03:04.553Z,101835.64
2019-03-12T05:05:55.883Z,101834.08
2019-03-12T05:08:47.594Z,101815.80
2019-03-12T05:11:39.930Z,101798.78
2019-03-12T05:14:34.248Z,101794.91
2019-03-12T05:17:32.771Z,101795.30
2019-03-12T05:20:24.542Z,101786.11
2019-03-12T05:23:16.368Z,101779.42
2019-03-12T05:26:07.940Z,101767.67
2019-03-12T05:28:59.687Z,101758.52
2019-03-12T05:31:51.298Z,101746.48
2019-03-12T05:34:42.995Z,101737.32
2019-03-12T05:37:35.764Z,101743.16
2019-03-12T05:40:27.364Z,101732.19
2019-03-12T05:43:18.811Z,101726.70
2019-03-12T05:46:10.233Z,101713.31
2019-03-12T05:49:01.615Z,101702.77
2019-03-12T05:51:53.221Z,101702.55
2019-03-12T05:54:44.639Z,101699.03
2019-03-12T05:57:36.052Z,101684.89
2019-03-12T06:00:27.912Z,101681.84
2019-03-12T06:03:19.646Z,101677.86
2019-03-12T06:06:11.406Z,101678.85
2019-03-12T06:09:05.538Z,101672.34
2019-03-12T06:11:58.771Z,101666.80
2019-03-12T06:14:50.773Z,101663.34
2019-03-12T06:17:42.308Z,101656.55
2019-03-12T06:20:33.642Z,101664.91
2019-03-12T06:23:25.324Z,101651.20
2019-03-12T06:26:16.699Z,101648.81
2019-03-12T06:29:08.946Z,101642.47
2019-03-12T06:32:26.298Z,101630.13
2019-03-12T06:35:23.610Z,101630.73
2019-03-12T06:38:33.795Z,101621.04
2019-03-12T06:41:42.604Z,101620.66
2019-03-12T06:44:38.530Z,101612.38
2019-03-12T06:47:48.408Z,101618.54
2019-03-12T06:50:47.254Z,101616.41
2019-03-12T06:54:09.619Z,101607.31
2019-03-12T06:57:38.456Z,101602.53
2019-03-12T07:00:38.020Z,101600.83
2019-03-12T07:03:49.713Z,101584.53
2019-03-12T07:07:01.028Z,101582.17
2019-03-12T07:09:59.512Z,101571.19
2019-03-12T07:13:03.809Z,101561.64
2019-03-12T07:16:13.045Z,101555.23
2019-03-12T07:19:42.086Z,101543.77
2019-03-12T07:23:10.513Z,101529.38
2019-03-12T07:26:26.779Z,101516.88
2019-03-12T07:29:27.537Z,101513.58
2019-03-12T07:32:29.567Z,101508.77
2019-03-12T07:35:46.265Z,101496.80
2019-03-12T07:38:45.532Z,101488.30
2019-03-12T07:41:54.170Z,101481.91
2019-03-12T07:44:55.826Z,101477.83
2019-03-12T07:48:01.910Z,101474.50
2019-03-12T07:51:24.521Z,101467.33
2019-03-12T07:54:28.534Z,101466.73
2019-03-12T07:57:38.395Z,101448.25
2019-03-12T08:00:48.671Z,101439.77
2019-03-12T08:03:59.066Z,101429.53
2019-03-12T08:07:01.729Z,101417.73
2019-03-12T08:10:10.848Z,101405.38
2019-03-12T08:13:15.899Z,101401.26
2019-03-12T08:16:16.103Z,101387.78
2019-03-12T08:19:36.370Z,101385.33
2019-03-12T08:22:42.163Z,101368.59
2019-03-12T08:25:39.622Z,101353.05
2019-03-12T08:28:38.210Z,101352.16
2019-03-12T08:31:48.816Z,101351.86
2019-03-12T08:35:05.676Z,101334.97
2019-03-12T08:38:12.078Z,101325.06
2019-03-12T08:41:09.762Z,101316.48
2019-03-12T08:44:26.968Z,101312.31
2019-03-12T08:47:37.103Z,101293.17
2019-03-12T08:50:45.156Z,101289.48
2019-03-12T08:53:49.436Z,101284.31
2019-03-12T08:56:57.149Z,101266.21
2019-03-12T09:00:19.352Z,101247.43
2019-03-12T09:03:45.225Z,101255.01
2019-03-12T09:07:04.985Z,101240.66
2019-03-12T09:10:16.769Z,101236.94
2019-03-12T09:13:40.167Z,101222.56
2019-03-12T09:16:40.073Z,101235.41
2019-03-12T09:19:53.608Z,101224.77
2019-03-12T09:22:54.692Z,101213.06
2019-03-12T09:25:56.427Z,101203.95
2019-03-12T09:29:02.338Z,101185.86
2019-03-12T09:32:20.430Z,101189.26
2019-03-12T09:35:30.873Z,101168.18
2019-03-12T09:38:30.914Z,101159.60
2019-03-12T09:41:47.598Z,101152.44
2019-03-12T09:44:59.652Z,101142.46
2019-03-12T09:48:00.953Z,101138.56
2019-03-12T09:50:58.436Z,101111.63
2019-03-12T09:54:12.234Z,101106.52
2019-03-12T09:57:17.414Z,101104.48
2019-03-12T10:00:19.996Z,101103.85
2019-03-12T10:03:29.404Z,101091.97
2019-03-12T10:06:48.749Z,101100.30
2019-03-12T10:09:53.715Z,101085.01
2019-03-12T10:13:22.460Z,101076.00
2019-03-12T10:16:31.513Z,101062.09
2019-03-12T10:19:39.493Z,101054.09
2019-03-12T10:22:42.224Z,101054.33
2019-03-12T10:25:53.180Z,101040.42
2019-03-12T10:28:53.979Z,101037.34
2019-03-12T10:32:03.220Z,101035.50
2019-03-12T10:35:05.938Z,101027.77
2019-03-12T10:38:17.617Z,101019.73
2019-03-12T10:41:18.995Z,101005.32
2019-03-12T10:44:21.245Z,100985.05
2019-03-12T10:47:17.256Z,100981.02
2019-03-12T10:50:09.192Z,100967.64
2019-03-12T10:53:00.576Z,100958.61
2019-03-12T10:55:52.570Z,100946.87
2019-03-12T10:58:44.738Z,100937.17
2019-03-12T11:01:36.151Z,100923.62
2019-03-12T11:04:27.715Z,100910.69
2019-03-12T11:07:19.399Z,100905.57
2019-03-12T11:10:11.896Z,100900.36
2019-03-12T11:13:03.578Z,100890.97
2019-03-12T11:15:56.011Z,100887.63
2019-03-12T11:18:48.019Z,100872.70
2019-03-12T11:21:39.410Z,100868.46
2019-03-12T11:24:31.097Z,100860.00
2019-03-12T11:27:22.569Z,100847.91
2019-03-12T11:30:17.265Z,100844.98
2019-03-12T11:33:08.860Z,100843.71
2019-03-12T11:36:00.149Z,100834.56
2019-03-12T11:38:51.809Z,100825.23
2019-03-12T11:41:44.752Z,100808.16
2019-03-12T11:44:36.187Z,100807.07
2019-03-12T11:47:27.654Z,100800.38
2019-03-12T11:50:20.997Z,100803.30
2019-03-12T11:53:12.745Z,100801.06
2019-03-12T11:56:04.321Z,100786.19
2019-03-12T11:58:55.762Z,100785.79
2019-03-12T12:01:47.519Z,100782.96
2019-03-12T12:04:38.855Z,100781.67
2019-03-12T12:07:30.477Z,100756.76
2019-03-12T12:10:22.211Z,100750.13
2019-03-12T12:13:13.934Z,100738.63
2019-03-12T12:16:05.723Z,100725.70
2019-03-12T12:18:57.332Z,100704.98
2019-03-12T12:21:48.773Z,100680.83
2019-03-12T12:24:40.560Z,100664.27
2019-03-12T12:27:31.940Z,100661.37
2019-03-12T12:30:23.676Z,100645.84
2019-03-12T12:33:15.196Z,100643.87
2019-03-12T12:36:06.585Z,100644.75
2019-03-12T12:38:57.903Z,100641.17
2019-03-12T12:41:49.487Z,100638.53
2019-03-12T12:44:41.784Z,100619.20
2019-03-12T12:47:33.278Z,100608.81
2019-03-12T12:50:24.979Z,100598.36
2019-03-12T12:53:17.278Z,100571.47
2019-03-12T12:56:09.148Z,100556.13
2019-03-12T12:59:00.715Z,100555.69
2019-03-12T13:01:52.289Z,100533.34
2019-03-12T13:04:44.368Z,100530.39
2019-03-12T13:07:35.976Z,100531.63
2019-03-12T13:10:27.297Z,100512.23
2019-03-12T13:13:18.713Z,100506.34
2019-03-12T13:16:24.081Z,100499.88
2019-03-12T13:19:04.584Z,100493.30
2019-03-12T13:21:57.060Z,100481.76
2019-03-12T13:24:50.092Z,100464.88
2019-03-12T13:27:42.862Z,100463.07
2019-03-12T13:30:34.680Z,100464.72
2019-03-12T13:33:26.977Z,100446.64
2019-03-12T13:36:19.284Z,100447.62
2019-03-12T13:39:11.077Z,100435.41
2019-03-12T13:42:04.116Z,100423.77
2019-03-12T13:44:55.756Z,100400.65
2019-03-12T13:47:48.291Z,100387.95
2019-03-12T13:50:40.365Z,100396.30
2019-03-12T13:53:31.862Z,100383.16
2019-03-12T13:56:23.168Z,100370.16
2019-03-12T13:59:14.813Z,100365.63
2019-03-12T14:02:06.284Z,100373.80
2019-03-12T14:04:57.810Z,100353.17
2019-03-12T14:07:49.416Z,100354.34
2019-03-12T14:10:40.768Z,100346.95
2019-03-12T14:13:32.318Z,100332.09
2019-03-12T14:16:23.792Z,100302.84
2019-03-12T14:19:15.876Z,100288.16
2019-03-12T14:22:09.955Z,100293.23
2019-03-12T14:25:01.637Z,100281.13
2019-03-12T14:27:53.320Z,100274.95
2019-03-12T14:30:44.693Z,100252.08
2019-03-12T14:33:36.340Z,100247.13
2019-03-12T14:36:28.972Z,100245.73
2019-03-12T14:39:20.767Z,100246.16
2019-03-12T14:42:12.359Z,100225.08
2019-03-12T14:45:03.800Z,100223.57
2019-03-12T14:47:55.337Z,100210.39
2019-03-12T14:50:48.061Z,100205.28
2019-03-12T14:53:40.093Z,100186.61
2019-03-12T14:56:32.604Z,100170.27
2019-03-12T14:59:24.739Z,100170.83
2019-03-12T15:02:16.035Z,100146.19
2019-03-12T15:05:07.932Z,100153.70
2019-03-12T15:08:00.303Z,100155.66
2019-03-12T15:10:51.681Z,100128.18
2019-03-12T15:13:43.898Z,100110.27
2019-03-12T15:16:35.345Z,100118.91
2019-03-12T15:19:26.720Z,100096.52
2019-03-12T15:22:18.058Z,100100.28
2019-03-12T15:25:10.295Z,100100.23
2019-03-12T15:28:02.599Z,100101.14
2019-03-12T15:30:53.926Z,100088.16
2019-03-12T15:33:45.370Z,100073.60
2019-03-12T15:36:36.981Z,100060.18
2019-03-12T15:39:28.647Z,100039.48
2019-03-12T15:42:20.849Z,100027.25
2019-03-12T15:45:12.783Z,100016.69
2019-03-12T15:48:04.438Z,100006.98
2019-03-12T15:50:55.771Z,99998.11
2019-03-12T15:53:47.642Z,99994.08
2019-03-12T15:56:39.384Z,99978.92
2019-03-12T15:59:31.071Z,99960.45
2019-03-12T16:02:23.440Z,99949.69
2019-03-12T16:05:14.714Z,99919.07
2019-03-12T16:08:07.007Z,99915.95
2019-03-12T16:10:58.826Z,99910.03
2019-03-12T16:13:50.401Z,99903.84
2019-03-12T16:16:41.879Z,99879.64
2019-03-12T16:19:33.289Z,99880.86
2019-03-12T16:22:24.903Z,99892.27
2019-03-12T16:25:16.254Z,99881.97
2019-03-12T16:28:07.615Z,99866.91
2019-03-12T16:30:59.363Z,99848.56
2019-03-12T16:33:53.069Z,99852.57
2019-03-12T16:36:44.608Z,99851.79
2019-03-12T16:39:36.240Z,99840.00
2019-03-12T16:42:34.935Z,99843.91
2019-03-12T16:45:20.884Z,99846.34
2019-03-12T16:48:12.559Z,99827.63
2019-03-12T16:51:09.845Z,99822.92
2019-03-12T16:54:01.536Z,99832.71
2019-03-12T16:56:53.083Z,99831.90
2019-03-12T16:59:45.439Z,99841.69
2019-03-12T17:02:36.946Z,99838.38
2019-03-12T17:05:28.750Z,99845.45
2019-03-12T17:08:20.242Z,99833.02
2019-03-12T17:11:13.020Z,99851.09
2019-03-12T17:14:05.614Z,99843.48
2019-03-12T17:16:58.139Z,99866.66
2019-03-12T17:19:50.037Z,99876.40
2019-03-12T17:22:41.520Z,99874.13
2019-03-12T17:25:32.998Z,99893.48
2019-03-12T17:28:24.507Z,99884.44
2019-03-12T17:31:16.057Z,99880.69
2019-03-12T17:34:07.603Z,99896.97
2019-03-12T17:36:59.048Z,99899.66
2019-03-12T17:39:50.490Z,99900.34
2019-03-12T17:42:42.206Z,99948.86
2019-03-12T17:45:33.829Z,99973.44
2019-03-12T17:48:25.824Z,100037.19
2019-03-12T17:51:18.091Z,100078.03
2019-03-12T17:54:09.845Z,100091.73
2019-03-12T17:57:01.322Z,100120.20
2019-03-12T17:59:52.799Z,100128.28
2019-03-12T18:02:44.413Z,100122.37
2019-03-12T18:05:36.729Z,100135.33
2019-03-12T18:08:29.711Z,100154.86
2019-03-12T18:11:21.820Z,100156.79
2019-03-12T18:14:15.789Z,100182.25
2019-03-12T18:17:08.913Z,100199.76
2019-03-12T18:20:00.569Z,100218.87
2019-03-12T18:22:52.173Z,100230.28
2019-03-12T18:25:44.794Z,100244.02
2019-03-12T18:28:37.361Z,100253.18
2019-03-12T18:31:29.387Z,100256.31
2019-03-12T18:34:23.855Z,100273.83
2019-03-12T18:37:18.224Z,100274.61
2019-03-12T18:40:19.271Z,100285.93
2019-03-12T18:43:14.765Z,100304.48
2019-03-12T18:46:07.215Z,100309.70
2019-03-12T18:49:00.089Z,100313.11
2019-03-12T18:51:57.308Z,100310.46
2019-03-12T18:54:49.330Z,100300.21
2019-03-12T18:57:41.489Z,100322.17
2019-03-12T19:00:34.771Z,100336.67
2019-03-12T19:03:26.912Z,100346.88
2019-03-12T19:06:18.682Z,100356.42
2019-03-12T19:09:11.492Z,100358.19
2019-03-12T19:12:03.681Z,100373.23
2019-03-12T19:14:56.848Z,100383.52
2019-03-12T19:17:48.498Z,100389.33
2019-03-12T19:20:41.007Z,100389.17
2019-03-12T19:23:32.687Z,100394.73
2019-03-12T19:26:24.467Z,100401.20
2019-03-12T19:29:16.915Z,100407.20
2019-03-12T19:32:16.467Z,100427.23
2019-03-12T19:35:12.499Z,100418.07
2019-03-12T19:38:04.281Z,100410.17
2019-03-12T19:40:56.307Z,100413.02
2019-03-12T19:43:47.987Z,100417.38
2019-03-12T19:46:39.567Z,100429.95
2019-03-12T19:49:32.162Z,100431.24
2019-03-12T19:52:24.159Z,100433.72
2019-03-12T19:55:18.565Z,100436.96
2019-03-12T19:58:10.123Z,100442.19
2019-03-12T20:01:03.348Z,100445.98
2019-03-12T20:03:54.526Z,100445.12
2019-03-12T20:06:46.716Z,100451.23
2019-03-12T20:10:46.278Z,100449.31
2019-03-12T20:14:56.538Z,100449.28
2019-03-12T20:18:59.890Z,100458.77
2019-03-12T20:23:06.946Z,100458.73
2019-03-12T20:26:54.540Z,100458.39
2019-03-12T20:31:07.543Z,100455.16
2019-03-12T20:35:12.585Z,100464.09
2019-03-12T20:39:23.837Z,100473.83
2019-03-12T20:43:14.312Z,100474.70
2019-03-12T20:47:11.507Z,100480.48
2019-03-12T20:51:28.075Z,100491.03
2019-03-12T20:55:26.417Z,100499.23
2019-03-12T20:59:28.931Z,100499.88
2019-03-12T21:03:19.325Z,100501.62
2019-03-12T21:07:06.531Z,100511.71
2019-03-12T21:10:51.338Z,100520.23
2019-03-12T21:14:37.360Z,100521.64
2019-03-12T21:18:05.111Z,100518.10
2019-03-12T21:21:47.027Z,100518.17
2019-03-12T21:25:56.879Z,100510.45
2019-03-12T21:29:15.539Z,100508.08
2019-03-12T21:32:07.037Z,100520.62
2019-03-12T21:34:58.626Z,100524.02
2019-03-12T21:37:50.013Z,100522.92
2019-03-12T21:40:41.363Z,100534.66
2019-03-12T21:43:32.716Z,100536.70
2019-03-12T21:46:24.290Z,100538.13
2019-03-12T21:49:15.877Z,100534.18
2019-03-12T21:52:07.883Z,100533.32
2019-03-12T21:54:59.234Z,100535.37
2019-03-12T21:57:50.551Z,100543.09
2019-03-12T22:00:42.107Z,100543.03
2019-03-12T22:03:34.211Z,100547.05
2019-03-12T22:06:25.478Z,100545.95
2019-03-12T22:09:17.186Z,100541.22
2019-03-12T22:12:09.570Z,100536.72
2019-03-12T22:15:01.006Z,100538.77
2019-03-12T22:17:54.374Z,100534.83
2019-03-12T22:20:46.180Z,100531.34
2019-03-12T22:23:44.838Z,100523.55
2019-03-12T22:26:37.243Z,100526.77
2019-03-12T22:29:28.583Z,100521.33
2019-03-12T22:32:21.293Z,100532.78
2019-03-12T22:35:12.719Z,100544.45
2019-03-12T22:38:04.319Z,100547.20
2019-03-12T22:40:55.735Z,100549.50
2019-03-12T22:43:47.107Z,100539.16
2019-03-12T22:46:38.711Z,100546.59
2019-03-12T22:49:30.461Z,100552.88
2019-03-12T22:52:21.990Z,100543.42
2019-03-12T22:55:13.574Z,100539.31
2019-03-12T22:58:05.559Z,100539.02
2019-03-12T23:01:15.007Z,100546.09
2019-03-12T23:04:24.792Z,100549.01
2019-03-12T23:07:34.450Z,100546.81
2019-03-12T23:10:27.504Z,100559.44
2019-03-12T23:13:18.973Z,100565.99
2019-03-12T23:16:11.243Z,100567.55
2019-03-12T23:19:02.931Z,100565.34
2019-03-12T23:21:54.392Z,100567.55
2019-03-12T23:24:46.534Z,100559.26
2019-03-12T23:27:38.122Z,100558.70
2019-03-12T23:30:29.547Z,100556.65
2019-03-12T23:33:21.659Z,100552.06
2019-03-12T23:36:13.892Z,100560.45
2019-03-12T23:39:08.514Z,100564.08
2019-03-12T23:42:01.234Z,100562.73
2019-03-12T23:44:52.609Z,100568.33
2019-03-12T23:47:43.974Z,100564.08
2019-03-12T23:50:35.762Z,100564.29
2019-03-12T23:53:27.107Z,100565.48
2019-03-12T23:56:18.693Z,100556.55
2019-03-12T23:59:09.978Z,100549.85
